Buchanan Dam, Texas
Current Conditions -  °F | °C
As of 2:53 PM on Thursday 23 Oct 2014 (Local Time) from KBMQ Reporting Station
Overcast Overcast  
Wind Chill: 78°   Ceiling: 6000
Heat Index: 79°   Visibility: 10mi
Dew Point: 60°   Wind: 5mph
Humidity: 54%   Direction: 220°SW
Pressure: 30.12"   Gusts: NA
Location:  30.75°N, 98.42°W
Report Text: KBMQ 231953Z AUTO 22004KT 10SM FEW046 OVC060 26/16 A3012 RMK AO2 SLP184 T02560156
Loading
Personal Weather Stations






























Interactive Weather Map
Tropical Storm Tracking
New forecast layout! Learn more

10-Day Weather Forecast

Advertisements
Track Severe Weather on mobile